Weekend O'PICARDIE Forêt de Hez-Froidmont (60) - Violet court 3.5

Date : 17/11/2019
Distance : 3,230 km

Place Nom Licence Catégorie Club Temps min/km CN à J-60 Points Différence Nouveau CN
1 MILEO Julien 24999 H40 2704NM 0:33:12 10'16 7181 5291 -1890 7268
2 BEAUVISAGE Noémie 28535 D21 2704NM 0:42:47 13'14 4105 4269
3 GIL SILVEIRA Carlos 26857 H45 9404IF 0:45:50 14'11 4057 3832 -225 4041
4 SAINT-UPERY Patrick 1953 H65 9502IF 0:46:16 14'19 4684 3796 -888 4633
5 TISSANDIER Agathe 32305 D14 2704NM 0:46:24 14'21 2805 3785 +980 2876
6 VEROVE Vianney 35558 H14 5907HF 0:46:53 14'30 1906 3746 +1840 2652
7 COFFE Daniel 20554 H55 9502IF 0:47:15 14'37 4068 3717 -351 4179
8 DUPIN Margot 24856 D18 2704NM 0:47:55 14'50 3168 3666 +498 3836
9 CLABAUX Sylvain 36262 H35 6208HF 0:51:16 15'52 4388 3426 -962 4560
10 LESAGE Céline 34770 D45 7604NM 0:51:21 15'53 4166 3421 -745 4090
11 LEFEBVRE Florian 29115 H16 5909HF 0:51:36 15'58 3406 3404 -2 3559
12 NIZET Agathe 36822 D16 5116GE 0:54:40 16'55 2551 3213 +662 3151
13 WOTQUENNE Line 7593 D21 5116GE 1:02:20 19'17 3606 2818 -788 3436
14 POULAIN Justine 29613 D14 2704NM 1:02:52 19'27 2896 2794 -102 2886
15 TAILLANDIER Guy 1583 H70 0801GE 1:03:41 19'42 4853 2758 -2095 5077
16 EJSMONT Jean 5597 H70 6203HF 1:04:10 19'51 3573 2737 -836 3553
17 BERTOUT bastien 36151 H40 5906HF 1:07:46 20'58 1787 2592 +805 2197
18 SENCE Marie-Pierre 29897 D40 5906HF 1:08:57 21'20 3325 2547 -778 3419
19 LECOYER Regis 2884 H65 0207HF 1:09:48 21'36 2810 2516 -294 2836
20 SCHONWASSER Isabelle 37845 D21 5906HF 1:10:57 21'57 2476 1714
21 LECOYER Annick 2885 D65 0207HF 1:16:57 23'49 2848 2283 -565 2815
22 LEFEBVRE François 34065 H45 5909HF 1:26:17 26'42 3938 2036 -1902 3650
23 JACQUEMART Marina 28528 D21 5909HF 1:29:35 27'44 2053 1961 -92 2707
24 OLIVIER Béatrice 35044 D45 5116GE 1:33:15 28'52 2720 1884 -836 2851
25 GAILLARD Gilles 36601 H65 6099HF 1:36:42 29'56 2119 1816 -303 2147
26 DENIS Martine 12377 D70 9404IF 1:47:37 33'19 2359 1632 -727 2388
27 BEN KHALED Isabelle 13761 D60 5906HF 2:11:54 40'50 2360 1332 -1028 2365
28 LUDEWIG-JAMES Carol 15894 D80 5907HF 3:04:10 57'01 1483 954 -529 1445
BEAUVISAGE Valérie 28538 D50 2704NM pm None 4193 0 4157